createdAt,value
2018-09-14T08:21:31.405Z,8.70
2018-09-14T08:22:31.251Z,11.50
2018-09-14T08:23:31.309Z,12.80
2018-09-14T08:24:31.216Z,12.40
2018-09-14T08:25:31.211Z,13.20
2018-09-14T08:26:31.177Z,13.50
2018-09-14T08:27:31.158Z,12.80
2018-09-14T08:28:31.209Z,12.80
2018-09-14T08:29:41.416Z,12.50
2018-09-14T08:30:31.195Z,13.20
2018-09-14T08:31:31.147Z,12.10
2018-09-14T08:32:31.145Z,11.70
2018-09-14T08:33:31.097Z,11.90
2018-09-14T08:34:31.105Z,13.60
2018-09-14T08:35:31.008Z,11.90
2018-09-14T08:36:30.995Z,12.20
2018-09-14T08:37:30.999Z,11.60
2018-09-14T08:38:30.993Z,12.40
2018-09-14T08:39:30.992Z,12.00
2018-09-14T08:40:30.993Z,12.70
2018-09-14T08:41:30.941Z,12.60
2018-09-14T08:42:30.919Z,12.20
2018-09-14T08:43:30.876Z,12.50
2018-09-14T08:44:30.869Z,13.10
2018-09-14T08:45:30.873Z,13.00
2018-09-14T08:46:30.838Z,13.10
2018-09-14T08:47:30.808Z,12.50
2018-09-14T08:48:30.790Z,13.30
2018-09-14T08:49:39.934Z,13.30
2018-09-14T08:50:30.763Z,13.40
2018-09-14T08:51:40.950Z,13.00
2018-09-14T08:52:30.730Z,13.50
2018-09-14T08:53:30.693Z,12.80
2018-09-14T08:54:30.689Z,13.00
2018-09-14T08:55:30.660Z,12.80
2018-09-14T08:56:30.658Z,12.90
2018-09-14T08:57:30.622Z,12.40
2018-09-14T08:58:30.618Z,12.80
2018-09-14T08:59:30.623Z,12.60
2018-09-14T09:00:30.630Z,12.70
2018-09-14T09:01:30.627Z,12.20
2018-09-14T09:02:30.565Z,12.90
2018-09-14T09:03:30.555Z,12.10
2018-09-14T09:04:30.534Z,13.30
2018-09-14T09:05:30.511Z,12.50
2018-09-14T09:06:30.500Z,13.20
2018-09-14T09:07:30.510Z,13.00
2018-09-14T09:08:30.485Z,13.10
2018-09-14T09:09:30.470Z,12.60
2018-09-14T09:10:30.438Z,12.10
2018-09-14T09:11:30.469Z,12.90
2018-09-14T09:12:30.424Z,13.70
2018-09-14T09:13:40.981Z,13.00
2018-09-14T09:14:30.387Z,13.60
2018-09-14T09:15:30.411Z,13.80
2018-09-14T09:16:30.376Z,14.90
2018-09-14T09:17:30.376Z,13.80
2018-09-14T09:18:30.363Z,14.60
2018-09-14T09:19:30.425Z,15.90
2018-09-14T09:20:30.341Z,15.80
2018-09-14T09:21:30.273Z,16.10
2018-09-14T09:22:30.352Z,16.10
2018-09-14T09:23:30.299Z,15.50
2018-09-14T09:24:30.245Z,16.90
2018-09-14T09:25:30.215Z,16.00
2018-09-14T09:26:30.274Z,17.10
2018-09-14T09:27:30.179Z,15.90
2018-09-14T09:28:30.154Z,16.30
2018-09-14T09:29:30.220Z,17.20
2018-09-14T09:30:30.120Z,16.60
2018-09-14T09:31:30.107Z,15.90
2018-09-14T09:32:30.103Z,16.70
2018-09-14T09:33:30.073Z,16.70
2018-09-14T09:34:30.078Z,17.40
2018-09-14T09:35:30.127Z,16.30
2018-09-14T09:36:30.025Z,17.10
2018-09-14T09:37:30.004Z,16.10
2018-09-14T09:38:30.003Z,16.10
2018-09-14T09:39:30.079Z,16.90
2018-09-14T09:40:29.976Z,16.70
2018-09-14T09:41:29.960Z,16.00
2018-09-14T09:42:29.960Z,16.00
2018-09-14T09:43:30.053Z,16.30
2018-09-14T09:44:29.898Z,15.90
2018-09-14T09:45:29.926Z,16.40
2018-09-14T09:46:29.911Z,15.70
2018-09-14T09:47:29.882Z,15.40
2018-09-14T09:48:29.847Z,14.80
2018-09-14T09:49:29.835Z,14.90
2018-09-14T09:50:29.848Z,14.10
2018-09-14T09:51:29.801Z,14.20
2018-09-14T09:52:29.806Z,15.60
2018-09-14T09:53:29.765Z,15.70
2018-09-14T09:54:29.754Z,15.40
2018-09-14T09:55:29.739Z,14.60
2018-09-14T09:56:41.081Z,14.50
2018-09-14T09:57:29.708Z,13.70
2018-09-14T09:58:29.672Z,13.30
2018-09-14T09:59:29.658Z,13.10
2018-09-14T10:00:29.691Z,12.80
2018-09-14T10:01:29.659Z,12.50
2018-09-14T10:02:29.613Z,12.40
2018-09-14T10:03:29.664Z,11.90
2018-09-14T10:04:29.652Z,10.70
2018-09-14T10:05:29.641Z,10.40
2018-09-14T10:06:29.646Z,10.20
2018-09-14T10:07:29.595Z,11.20
2018-09-14T10:08:29.591Z,10.50
2018-09-14T10:09:29.566Z,10.00
2018-09-14T10:10:29.578Z,8.40
2018-09-14T10:11:29.504Z,8.80
2018-09-14T10:12:29.464Z,7.80
2018-09-14T10:13:29.443Z,7.70
2018-09-14T10:14:29.416Z,8.20
2018-09-14T10:15:29.404Z,7.70
2018-09-14T10:16:29.417Z,7.00
2018-09-14T10:17:29.388Z,6.30
2018-09-14T10:18:29.434Z,6.10
2018-09-14T10:19:29.370Z,7.10
2018-09-14T10:20:29.380Z,6.20
2018-09-14T10:21:29.429Z,6.20
2018-09-14T10:22:29.325Z,6.60
2018-09-14T10:23:29.294Z,6.80
2018-09-14T10:24:29.287Z,7.00
2018-09-14T10:25:29.281Z,6.50
2018-09-14T10:26:29.272Z,9.10
2018-09-14T10:27:29.268Z,9.10
2018-09-14T10:28:29.219Z,10.10
2018-09-14T10:29:29.213Z,9.80
2018-09-14T10:30:29.228Z,9.80
2018-09-14T10:31:29.183Z,9.60
2018-09-14T10:32:29.235Z,10.60
2018-09-14T10:33:29.200Z,12.20
2018-09-14T10:34:29.147Z,12.60
2018-09-14T10:35:29.133Z,14.90
2018-09-14T10:36:29.120Z,13.50
2018-09-14T10:37:29.082Z,14.30
2018-09-14T10:38:29.084Z,13.10
2018-09-14T10:39:29.245Z,13.50
2018-09-14T10:40:38.567Z,12.10
2018-09-14T10:41:29.024Z,13.40
2018-09-14T10:42:29.047Z,11.40
2018-09-14T10:43:28.994Z,11.50
2018-09-14T10:44:28.972Z,10.90
2018-09-14T10:45:29.048Z,11.80
2018-09-14T10:46:28.982Z,11.40
2018-09-14T10:47:28.941Z,11.30
2018-09-14T10:48:28.938Z,11.20
2018-09-14T10:49:28.925Z,12.10
2018-09-14T10:50:28.918Z,11.70
2018-09-14T10:51:28.920Z,11.50
2018-09-14T10:52:28.878Z,11.60
2018-09-14T10:53:28.907Z,11.00
2018-09-14T10:54:28.889Z,12.10
2018-09-14T10:55:28.939Z,11.90
2018-09-14T10:56:28.903Z,12.30
2018-09-14T10:57:28.886Z,12.80
2018-09-14T10:58:28.882Z,13.60
2018-09-14T10:59:28.824Z,12.30
2018-09-14T11:00:28.835Z,13.10
2018-09-14T11:01:28.749Z,12.10
2018-09-14T11:02:28.733Z,14.40
2018-09-14T11:03:28.737Z,13.80
2018-09-14T11:04:28.729Z,13.30
2018-09-14T11:05:28.736Z,13.40
2018-09-14T11:06:28.723Z,12.10
2018-09-14T11:07:28.718Z,13.40
2018-09-14T11:08:28.681Z,12.80
2018-09-14T11:09:28.673Z,14.70
2018-09-14T11:10:28.655Z,14.00
2018-09-14T11:11:28.611Z,13.70
2018-09-14T11:12:28.635Z,13.40
2018-09-14T11:13:28.585Z,14.00
2018-09-14T11:14:28.567Z,15.00
2018-09-14T11:15:28.572Z,12.80
2018-09-14T11:16:28.567Z,12.40
2018-09-14T11:17:39.105Z,11.40
2018-09-14T11:18:28.542Z,12.90
2018-09-14T11:19:28.485Z,11.90
2018-09-14T11:20:28.637Z,12.90
2018-09-14T11:21:28.525Z,13.00
2018-09-14T11:22:28.480Z,13.60
2018-09-14T11:23:28.503Z,13.20
2018-09-14T11:24:28.475Z,14.00
2018-09-14T11:25:28.520Z,13.40
2018-09-14T11:26:28.397Z,13.30
2018-09-14T11:27:28.460Z,13.20
2018-09-14T11:28:28.426Z,13.10
2018-09-14T11:29:28.436Z,14.40
2018-09-14T11:30:28.361Z,13.60
2018-09-14T11:31:28.343Z,14.00
2018-09-14T11:32:28.424Z,13.30
2018-09-14T11:33:28.371Z,14.50
2018-09-14T11:34:28.381Z,12.90
2018-09-14T11:35:28.316Z,13.10
2018-09-14T11:36:28.322Z,13.20
2018-09-14T11:37:28.270Z,13.40
2018-09-14T11:38:28.333Z,14.20
2018-09-14T11:39:28.252Z,13.10
2018-09-14T11:40:28.298Z,14.00
2018-09-14T11:41:28.229Z,12.30
2018-09-14T11:42:28.206Z,13.30
2018-09-14T11:43:28.177Z,13.40
2018-09-14T11:44:28.234Z,13.10
2018-09-14T11:45:28.168Z,13.00
2018-09-14T11:46:28.188Z,13.20
2018-09-14T11:47:28.219Z,12.10
2018-09-14T11:48:28.242Z,13.20
2018-09-14T11:49:28.196Z,12.70
2018-09-14T11:50:28.175Z,13.70
2018-09-14T11:51:28.152Z,14.80
2018-09-14T11:52:28.151Z,14.60
2018-09-14T11:53:28.152Z,14.00
2018-09-14T11:54:28.128Z,13.50
2018-09-14T11:55:28.134Z,13.70
2018-09-14T11:56:28.057Z,13.60
2018-09-14T11:57:28.059Z,12.40
2018-09-14T11:58:28.009Z,12.80
2018-09-14T11:59:27.991Z,12.30
2018-09-14T12:00:27.980Z,12.90
2018-09-14T12:01:28.030Z,12.50
2018-09-14T12:02:27.965Z,12.80
2018-09-14T12:03:27.944Z,13.40
2018-09-14T12:04:27.951Z,13.80
2018-09-14T12:05:27.909Z,13.60
2018-09-14T12:06:27.905Z,13.00
2018-09-14T12:07:27.906Z,13.90
2018-09-14T12:08:27.936Z,13.00
2018-09-14T12:09:27.890Z,13.00
2018-09-14T12:10:27.852Z,12.50
2018-09-14T12:11:27.853Z,12.40
2018-09-14T12:12:27.860Z,13.40
2018-09-14T12:13:27.844Z,13.30
2018-09-14T12:14:27.858Z,13.30
2018-09-14T12:15:27.806Z,13.90
2018-09-14T12:16:27.849Z,12.60
2018-09-14T12:17:27.765Z,12.60
2018-09-14T12:18:27.765Z,12.30
2018-09-14T12:19:27.755Z,12.50
2018-09-14T12:20:27.802Z,12.10
2018-09-14T12:21:27.750Z,12.80
2018-09-14T12:22:27.735Z,12.50
2018-09-14T12:23:27.795Z,13.00
2018-09-14T12:24:27.701Z,13.70
2018-09-14T12:25:27.695Z,14.30
2018-09-14T12:26:27.705Z,14.30
2018-09-14T12:27:27.712Z,13.30
2018-09-14T12:28:27.689Z,12.70
2018-09-14T12:29:27.671Z,12.70
2018-09-14T12:30:27.635Z,13.30
2018-09-14T12:31:27.637Z,13.00
2018-09-14T12:32:27.732Z,14.20
2018-09-14T12:33:27.614Z,14.00
2018-09-14T12:34:27.599Z,14.10
2018-09-14T12:35:27.591Z,13.50
2018-09-14T12:36:27.590Z,13.20
2018-09-14T12:37:27.595Z,14.60
2018-09-14T12:38:27.577Z,13.80
2018-09-14T12:39:27.545Z,13.00
2018-09-14T12:40:27.534Z,13.80
2018-09-14T12:41:27.536Z,13.50
2018-09-14T12:42:27.545Z,12.00
2018-09-14T12:43:27.513Z,12.90
2018-09-14T12:44:27.512Z,13.00
2018-09-14T12:45:27.495Z,12.70
2018-09-14T12:46:27.482Z,13.00
2018-09-14T12:47:27.546Z,12.00
2018-09-14T12:48:27.500Z,12.30
2018-09-14T12:49:27.510Z,12.50
2018-09-14T12:50:27.501Z,13.00
2018-09-14T12:51:27.470Z,11.90
2018-09-14T12:52:38.639Z,11.70
2018-09-14T12:53:27.373Z,12.60
2018-09-14T12:54:27.449Z,13.90
2018-09-14T12:55:27.359Z,13.30
2018-09-14T12:56:27.363Z,12.80
2018-09-14T12:57:27.342Z,11.60
2018-09-14T12:58:27.345Z,11.40
2018-09-14T12:59:27.345Z,12.00
2018-09-14T13:00:27.321Z,12.30
2018-09-14T13:01:27.275Z,12.00
2018-09-14T13:02:27.292Z,12.00
2018-09-14T13:03:27.275Z,12.50
2018-09-14T13:04:27.270Z,13.50
2018-09-14T13:05:27.276Z,12.70
2018-09-14T13:06:27.299Z,14.20
2018-09-14T13:07:27.253Z,12.70
2018-09-14T13:08:27.219Z,12.70
2018-09-14T13:09:27.239Z,13.20
2018-09-14T13:10:27.209Z,13.00
2018-09-14T13:11:27.182Z,13.10
2018-09-14T13:12:27.230Z,13.00
2018-09-14T13:13:27.227Z,13.30
2018-09-14T13:14:27.194Z,13.00
2018-09-14T13:15:27.161Z,11.90
2018-09-14T13:16:27.151Z,13.60
2018-09-14T13:17:27.121Z,12.00
2018-09-14T13:18:27.161Z,12.30
2018-09-14T13:19:27.121Z,11.70
2018-09-14T13:20:27.184Z,11.80
2018-09-14T13:21:27.109Z,13.00
2018-09-14T13:22:27.088Z,13.00
2018-09-14T13:23:27.071Z,12.70
2018-09-14T13:24:27.055Z,12.00
2018-09-14T13:25:27.044Z,11.30
2018-09-14T13:26:27.071Z,12.20
2018-09-14T13:27:27.094Z,11.90
2018-09-14T13:28:27.026Z,12.70
2018-09-14T13:29:27.043Z,11.70
2018-09-14T13:30:27.049Z,11.40
2018-09-14T13:31:27.013Z,12.30
2018-09-14T13:32:27.022Z,12.30
2018-09-14T13:33:27.014Z,11.40
2018-09-14T13:34:26.988Z,11.50
2018-09-14T13:35:37.200Z,10.10
2018-09-14T13:36:26.953Z,10.40
2018-09-14T13:37:26.959Z,10.60
2018-09-14T13:38:26.919Z,11.00
2018-09-14T13:39:26.919Z,10.80
2018-09-14T13:40:26.922Z,11.00
2018-09-14T13:41:26.962Z,11.40
2018-09-14T13:42:27.095Z,11.10
2018-09-14T13:43:26.878Z,11.90
2018-09-14T13:44:26.895Z,12.60
2018-09-14T13:45:26.849Z,11.40
2018-09-14T13:46:26.836Z,11.20
2018-09-14T13:47:26.837Z,11.60
2018-09-14T13:48:26.845Z,11.70
2018-09-14T13:49:26.844Z,12.00
2018-09-14T13:50:26.833Z,11.40
2018-09-14T13:51:26.811Z,11.40
2018-09-14T13:52:26.816Z,11.30
2018-09-14T13:53:26.821Z,11.40
2018-09-14T13:54:26.839Z,11.70
2018-09-14T13:55:26.892Z,11.50
2018-09-14T13:56:26.805Z,11.80
2018-09-14T13:57:38.178Z,11.20
2018-09-14T13:58:26.787Z,12.40
2018-09-14T13:59:26.794Z,10.90
2018-09-14T14:00:26.800Z,11.40
2018-09-14T14:01:26.848Z,11.00
2018-09-14T14:02:26.699Z,10.40
2018-09-14T14:03:26.692Z,11.20
2018-09-14T14:04:26.680Z,11.20
2018-09-14T14:05:26.725Z,11.30
2018-09-14T14:06:26.666Z,11.50
2018-09-14T14:07:26.662Z,11.70
2018-09-14T14:08:26.649Z,10.90
2018-09-14T14:09:26.643Z,10.70
2018-09-14T14:10:26.633Z,11.50
2018-09-14T14:11:26.637Z,11.10
2018-09-14T14:12:26.615Z,11.40
2018-09-14T14:13:26.612Z,10.70
2018-09-14T14:14:26.605Z,11.30
2018-09-14T14:15:26.588Z,10.90
2018-09-14T14:16:26.607Z,10.90
2018-09-14T14:17:26.698Z,10.80
2018-09-14T14:18:26.573Z,10.40
2018-09-14T14:19:26.569Z,10.20
2018-09-14T14:20:26.557Z,9.90
2018-09-14T14:21:26.557Z,9.90
2018-09-14T14:22:26.543Z,10.10
2018-09-14T14:23:26.531Z,10.40
2018-09-14T14:24:26.523Z,9.70
2018-09-14T14:25:26.516Z,10.10
2018-09-14T14:26:26.509Z,8.70
2018-09-14T14:27:26.510Z,8.80
2018-09-14T14:28:26.503Z,9.10
2018-09-14T14:29:26.494Z,9.20
2018-09-14T14:30:26.493Z,8.80
2018-09-14T14:31:26.473Z,9.30
2018-09-14T14:32:26.477Z,11.20
2018-09-14T14:33:26.463Z,8.40
2018-09-14T14:34:26.447Z,9.00
2018-09-14T14:35:26.440Z,8.70
2018-09-14T14:36:26.441Z,8.30
2018-09-14T14:37:26.427Z,7.80
2018-09-14T14:38:26.433Z,6.80
2018-09-14T14:39:26.410Z,7.30
2018-09-14T14:40:26.399Z,7.80
2018-09-14T14:41:26.536Z,7.00
2018-09-14T14:42:26.388Z,7.60
2018-09-14T14:43:26.393Z,7.30
2018-09-14T14:44:26.374Z,7.80
2018-09-14T14:45:26.371Z,6.50
2018-09-14T14:46:26.360Z,6.90
2018-09-14T14:47:26.353Z,8.00
2018-09-14T14:48:26.364Z,7.60
2018-09-14T14:49:26.342Z,8.60
2018-09-14T14:50:26.334Z,8.00
2018-09-14T14:51:26.331Z,7.40
2018-09-14T14:52:26.332Z,7.40
2018-09-14T14:53:26.318Z,8.10
2018-09-14T14:54:26.323Z,7.30
2018-09-14T14:55:26.301Z,6.90
2018-09-14T14:56:26.300Z,6.70
2018-09-14T14:57:26.308Z,6.10
2018-09-14T14:58:26.287Z,6.50
2018-09-14T14:59:26.272Z,6.30
2018-09-14T15:00:26.281Z,5.80
2018-09-14T15:01:26.256Z,6.00
2018-09-14T15:02:26.252Z,6.80
2018-09-14T15:03:26.242Z,6.30
2018-09-14T15:04:26.238Z,5.80
2018-09-14T15:05:26.269Z,7.00
2018-09-14T15:06:26.266Z,7.30
2018-09-14T15:07:26.224Z,7.00
2018-09-14T15:08:26.236Z,7.00
2018-09-14T15:09:26.241Z,7.40
2018-09-14T15:10:26.248Z,6.40
2018-09-14T15:11:26.239Z,6.30
2018-09-14T15:12:26.254Z,6.80
2018-09-14T15:13:26.267Z,6.80
2018-09-14T15:14:26.205Z,6.00
2018-09-14T15:15:26.129Z,5.20
2018-09-14T15:16:26.123Z,4.80
2018-09-14T15:17:26.112Z,5.10
2018-09-14T15:18:26.117Z,5.20
2018-09-14T15:19:26.143Z,5.10
2018-09-14T15:20:26.088Z,5.10
2018-09-14T15:21:26.088Z,4.60
2018-09-14T15:22:26.072Z,4.50
2018-09-14T15:23:26.072Z,4.20
2018-09-14T15:24:26.069Z,5.20
2018-09-14T15:25:26.037Z,4.80
2018-09-14T15:26:26.034Z,5.10
2018-09-14T15:27:26.021Z,4.50
2018-09-14T15:28:26.023Z,4.60
2018-09-14T15:29:26.009Z,4.60
2018-09-14T15:30:25.988Z,4.20
2018-09-14T15:31:25.979Z,4.20
2018-09-14T15:32:25.972Z,4.00
2018-09-14T15:33:25.949Z,4.10
2018-09-14T15:34:25.952Z,4.00
2018-09-14T15:35:25.933Z,4.70
2018-09-14T15:36:25.926Z,3.90
2018-09-14T15:37:25.915Z,3.80
2018-09-14T15:38:25.897Z,3.80
2018-09-14T15:39:25.883Z,4.30
2018-09-14T15:40:25.883Z,4.20
2018-09-14T15:41:25.863Z,4.40
2018-09-14T15:42:25.848Z,4.50
2018-09-14T15:43:25.844Z,4.50
2018-09-14T15:44:25.845Z,4.90
2018-09-14T15:45:25.825Z,5.00
2018-09-14T15:46:25.803Z,5.00
2018-09-14T15:47:25.792Z,5.10
2018-09-14T15:48:25.782Z,4.50
2018-09-14T15:49:25.833Z,4.70
2018-09-14T15:50:25.772Z,4.80
2018-09-14T15:51:25.745Z,5.10
2018-09-14T15:52:25.733Z,4.90
2018-09-14T15:53:25.720Z,4.50
2018-09-14T15:54:25.717Z,4.80
2018-09-14T15:55:25.730Z,4.80
2018-09-14T15:56:25.690Z,4.50
2018-09-14T15:57:25.674Z,4.60
2018-09-14T15:58:25.672Z,5.00
2018-09-14T15:59:25.672Z,4.60
2018-09-14T16:00:25.643Z,4.60
2018-09-14T16:01:25.640Z,4.50
2018-09-14T16:02:25.615Z,4.30
2018-09-14T16:03:25.604Z,4.00
2018-09-14T16:04:25.595Z,4.30
2018-09-14T16:05:25.580Z,4.30
2018-09-14T16:06:25.564Z,4.10
2018-09-14T16:07:25.585Z,4.90
2018-09-14T16:08:25.543Z,4.10
2018-09-14T16:09:25.549Z,4.20
2018-09-14T16:10:25.555Z,4.00
2018-09-14T16:11:25.557Z,3.90
2018-09-14T16:12:25.566Z,4.20
2018-09-14T16:13:25.614Z,4.20
2018-09-14T16:14:25.569Z,4.50
2018-09-14T16:15:25.517Z,4.40
2018-09-14T16:16:25.440Z,4.50
2018-09-14T16:17:25.441Z,4.50
2018-09-14T16:18:25.438Z,3.90
2018-09-14T16:19:25.415Z,3.80
2018-09-14T16:20:25.394Z,3.70
2018-09-14T16:21:25.382Z,3.80
2018-09-14T16:22:25.383Z,4.30
2018-09-14T16:23:25.366Z,4.60
2018-09-14T16:24:25.343Z,3.80
2018-09-14T16:25:25.336Z,4.20
2018-09-14T16:26:25.320Z,4.20
2018-09-14T16:27:25.313Z,4.10
2018-09-14T16:28:25.306Z,3.90
2018-09-14T16:29:25.282Z,3.70
2018-09-14T16:30:25.267Z,4.00
2018-09-14T16:31:25.257Z,4.10
2018-09-14T16:32:25.243Z,3.80
2018-09-14T16:33:25.240Z,4.10
2018-09-14T16:34:25.226Z,4.10
2018-09-14T16:35:25.217Z,4.00
2018-09-14T16:36:25.200Z,3.80
2018-09-14T16:37:25.190Z,4.10
2018-09-14T16:38:25.179Z,3.60
2018-09-14T16:39:25.158Z,4.00
2018-09-14T16:40:25.140Z,3.60
2018-09-14T16:41:25.122Z,3.60
2018-09-14T16:42:25.114Z,3.50
2018-09-14T16:43:25.161Z,4.00
2018-09-14T16:44:25.092Z,3.90
2018-09-14T16:45:25.075Z,3.50
2018-09-14T16:46:25.063Z,3.50
2018-09-14T16:47:25.052Z,3.60
2018-09-14T16:48:25.037Z,3.80
2018-09-14T16:49:25.037Z,3.40
2018-09-14T16:50:25.026Z,3.20
2018-09-14T16:51:25.047Z,3.50
2018-09-14T16:52:24.990Z,3.30
2018-09-14T16:53:24.989Z,3.40
2018-09-14T16:54:24.999Z,3.40
2018-09-14T16:55:25.062Z,3.30
2018-09-14T16:56:24.950Z,3.20
2018-09-14T16:57:24.923Z,3.20
2018-09-14T16:58:24.926Z,3.10
2018-09-14T16:59:24.915Z,3.50
2018-09-14T17:00:24.895Z,3.00
2018-09-14T17:01:24.917Z,3.20
2018-09-14T17:02:24.873Z,3.40
2018-09-14T17:03:24.886Z,3.10
2018-09-14T17:04:24.834Z,3.20
2018-09-14T17:05:24.839Z,3.30
2018-09-14T17:06:24.922Z,3.80
2018-09-14T17:07:24.837Z,3.40
2018-09-14T17:08:24.855Z,3.30
2018-09-14T17:09:24.850Z,3.40
2018-09-14T17:10:24.824Z,3.00
2018-09-14T17:11:24.796Z,3.30
2018-09-14T17:12:24.800Z,2.90
2018-09-14T17:13:24.807Z,3.30
2018-09-14T17:14:24.709Z,2.90
2018-09-14T17:15:24.677Z,2.80
2018-09-14T17:16:24.667Z,3.20
2018-09-14T17:17:24.662Z,3.00
2018-09-14T17:18:24.651Z,3.00
2018-09-14T17:19:24.623Z,3.00
2018-09-14T17:20:24.594Z,3.20
2018-09-14T17:21:24.640Z,3.10
2018-09-14T17:22:24.571Z,2.80
2018-09-14T17:23:24.604Z,3.20
2018-09-14T17:24:24.558Z,2.90
2018-09-14T17:25:24.538Z,3.10
2018-09-14T17:26:24.514Z,2.70
2018-09-14T17:27:24.539Z,3.00
2018-09-14T17:28:24.536Z,3.10
2018-09-14T17:29:24.481Z,3.00
2018-09-14T17:30:24.454Z,3.00
2018-09-14T17:31:24.444Z,3.30
2018-09-14T17:32:24.459Z,3.20
2018-09-14T17:33:24.439Z,3.20
2018-09-14T17:34:24.434Z,3.20
2018-09-14T17:35:24.758Z,2.80
2018-09-14T17:36:24.391Z,2.60
2018-09-14T17:37:24.371Z,2.70
2018-09-14T17:38:24.375Z,2.90
2018-09-14T17:39:24.419Z,2.70
2018-09-14T17:40:24.324Z,3.30
2018-09-14T17:41:24.289Z,3.30
2018-09-14T17:42:24.290Z,3.20
2018-09-14T17:43:24.500Z,3.10
2018-09-14T17:44:24.382Z,2.80
2018-09-14T17:45:24.325Z,2.90
2018-09-14T17:46:24.230Z,2.70
2018-09-14T17:47:24.226Z,3.30
2018-09-14T17:48:24.210Z,2.80
2018-09-14T17:49:24.189Z,2.60
2018-09-14T17:50:24.192Z,3.00
2018-09-14T17:51:24.190Z,2.90
2018-09-14T17:52:24.172Z,2.80
2018-09-14T17:53:24.124Z,2.60
2018-09-14T17:54:24.124Z,2.90
2018-09-14T17:55:24.098Z,3.00
2018-09-14T17:56:24.174Z,2.80
2018-09-14T17:57:24.175Z,2.90
2018-09-14T17:58:24.116Z,2.70
2018-09-14T17:59:24.115Z,2.60
2018-09-14T18:00:24.125Z,2.60
2018-09-14T18:01:24.050Z,2.80
2018-09-14T18:02:24.065Z,3.40
2018-09-14T18:03:24.089Z,2.70
2018-09-14T18:04:23.964Z,2.90
2018-09-14T18:05:23.941Z,3.10
2018-09-14T18:06:23.933Z,2.90
2018-09-14T18:07:23.926Z,2.90
2018-09-14T18:08:23.904Z,2.90
2018-09-14T18:09:23.894Z,2.80
2018-09-14T18:10:23.880Z,2.60
2018-09-14T18:11:23.862Z,2.70
2018-09-14T18:12:23.877Z,3.00
2018-09-14T18:13:23.856Z,2.80
2018-09-14T18:14:23.831Z,2.50
2018-09-14T18:15:23.792Z,2.60
2018-09-14T18:16:23.855Z,2.80
2018-09-14T18:17:23.763Z,3.00
2018-09-14T18:18:23.752Z,2.50
2018-09-14T18:19:23.759Z,2.70
2018-09-14T18:20:23.722Z,2.70
2018-09-14T18:21:23.699Z,2.70
2018-09-14T18:22:23.690Z,2.70
2018-09-14T18:23:23.722Z,2.60
2018-09-14T18:24:23.689Z,2.60
2018-09-14T18:25:23.647Z,2.70
2018-09-14T18:26:23.685Z,2.60
2018-09-14T18:27:23.699Z,2.70
2018-09-14T18:28:23.648Z,2.50
2018-09-14T18:29:23.569Z,2.60
2018-09-14T18:30:23.627Z,2.60
2018-09-14T18:31:23.565Z,2.70
2018-09-14T18:32:23.545Z,2.50
2018-09-14T18:33:23.524Z,3.20
2018-09-14T18:34:23.495Z,3.00
2018-09-14T18:35:23.533Z,2.60
2018-09-14T18:36:23.520Z,2.50
2018-09-14T18:37:23.462Z,2.70
2018-09-14T18:38:24.274Z,3.00
2018-09-14T18:39:23.419Z,2.40
2018-09-14T18:40:23.465Z,2.80
2018-09-14T18:41:23.408Z,2.70
2018-09-14T18:42:23.419Z,3.10
2018-09-14T18:43:31.804Z,2.70
2018-09-14T18:44:23.329Z,2.50
2018-09-14T18:45:23.338Z,2.70
2018-09-14T18:46:23.334Z,3.00
2018-09-14T18:47:23.387Z,2.60
2018-09-14T18:48:23.362Z,2.60
2018-09-14T18:49:23.361Z,2.90
2018-09-14T18:50:23.321Z,3.20
2018-09-14T18:51:23.298Z,2.60
2018-09-14T18:52:23.306Z,2.70
2018-09-14T18:53:23.303Z,2.90
2018-09-14T18:54:23.245Z,3.00
2018-09-14T18:55:23.193Z,2.90
2018-09-14T18:56:23.167Z,2.90
2018-09-14T18:57:23.170Z,3.20
2018-09-14T18:58:23.167Z,3.40
2018-09-14T18:59:23.127Z,2.80
2018-09-14T19:00:23.107Z,2.90
2018-09-14T19:01:23.094Z,3.10
2018-09-14T19:02:23.088Z,3.30
2018-09-14T19:03:23.055Z,3.20
2018-09-14T19:04:23.801Z,3.20
2018-09-14T19:05:23.058Z,3.10
2018-09-14T19:06:23.011Z,3.20
2018-09-14T19:07:22.977Z,3.30
2018-09-14T19:08:22.986Z,3.00
2018-09-14T19:09:22.947Z,3.00
2018-09-14T19:10:22.955Z,3.90
2018-09-14T19:11:22.927Z,3.60
2018-09-14T19:12:22.922Z,3.90
2018-09-14T19:13:22.917Z,4.00
2018-09-14T19:14:22.915Z,3.80
2018-09-14T19:15:23.752Z,3.50
2018-09-14T19:16:22.855Z,3.50
2018-09-14T19:17:22.815Z,3.30
2018-09-14T19:18:22.837Z,3.80
2018-09-14T19:19:22.850Z,3.20
2018-09-14T19:20:22.809Z,3.10
2018-09-14T19:21:22.804Z,3.60
2018-09-14T19:22:22.783Z,3.20
2018-09-14T19:23:22.733Z,3.50
2018-09-14T19:24:22.722Z,3.20
2018-09-14T19:25:22.724Z,3.20
2018-09-14T19:26:22.679Z,3.30
2018-09-14T19:27:22.705Z,3.40
2018-09-14T19:28:22.676Z,3.10
2018-09-14T19:29:22.635Z,2.90
2018-09-14T19:30:22.657Z,2.80
2018-09-14T19:31:22.659Z,3.00
2018-09-14T19:32:22.588Z,3.00
2018-09-14T19:33:22.600Z,3.10
2018-09-14T19:34:22.568Z,2.50
2018-09-14T19:35:22.587Z,2.70
2018-09-14T19:36:22.602Z,2.60
2018-09-14T19:37:22.635Z,2.70
2018-09-14T19:38:22.638Z,2.70
2018-09-14T19:39:22.530Z,2.90
2018-09-14T19:40:22.546Z,2.50
2018-09-14T19:41:22.554Z,2.70
2018-09-14T19:42:22.516Z,2.50
2018-09-14T19:43:22.417Z,2.70
2018-09-14T19:44:22.469Z,2.60
2018-09-14T19:45:22.388Z,2.90
2018-09-14T19:46:22.413Z,3.30
2018-09-14T19:47:22.337Z,3.00
2018-09-14T19:48:22.402Z,3.10
2018-09-14T19:49:22.347Z,2.90
2018-09-14T19:50:22.355Z,2.90
2018-09-14T19:51:22.355Z,3.30
2018-09-14T19:52:22.341Z,3.40
2018-09-14T19:53:22.235Z,3.90
2018-09-14T19:54:22.254Z,3.00
2018-09-14T19:55:22.208Z,2.90
2018-09-14T19:56:22.229Z,2.90
2018-09-14T19:57:22.201Z,2.90
2018-09-14T19:58:22.239Z,2.80
2018-09-14T19:59:22.192Z,2.70
2018-09-14T20:00:22.153Z,2.90
2018-09-14T20:01:22.125Z,3.00
2018-09-14T20:02:22.157Z,2.30
2018-09-14T20:03:22.089Z,2.50
2018-09-14T20:04:22.082Z,2.80
2018-09-14T20:05:22.131Z,2.90
2018-09-14T20:06:22.029Z,3.00
2018-09-14T20:07:22.022Z,2.70
2018-09-14T20:08:22.079Z,2.90
2018-09-14T20:09:22.022Z,2.70
2018-09-14T20:10:21.983Z,3.00
2018-09-14T20:11:22.007Z,2.80
2018-09-14T20:12:21.927Z,3.30
2018-09-14T20:13:21.912Z,2.60
2018-09-14T20:14:21.926Z,2.90
2018-09-14T20:15:21.913Z,3.50
2018-09-14T20:16:21.877Z,3.10
2018-09-14T20:17:21.906Z,3.10
2018-09-14T20:18:21.941Z,2.80
2018-09-14T20:19:21.808Z,3.10
2018-09-14T20:20:21.829Z,3.00
2018-09-14T20:21:21.798Z,2.70
2018-09-14T20:22:21.799Z,3.00
2018-09-14T20:23:21.856Z,2.90
2018-09-14T20:24:21.799Z,3.00
2018-09-14T20:25:21.772Z,2.80
2018-09-14T20:26:21.763Z,3.10
2018-09-14T20:27:21.664Z,3.30
2018-09-14T20:28:21.667Z,3.60
2018-09-14T20:29:21.757Z,3.40
2018-09-14T20:30:21.645Z,3.10
2018-09-14T20:31:21.615Z,3.30
2018-09-14T20:32:21.646Z,3.50
2018-09-14T20:33:21.574Z,3.70
2018-09-14T20:34:21.559Z,2.60
2018-09-14T20:35:21.568Z,3.10
2018-09-14T20:36:21.546Z,3.10
2018-09-14T20:37:21.572Z,3.30
2018-09-14T20:38:21.518Z,3.50
2018-09-14T20:39:21.506Z,3.10
2018-09-14T20:40:21.475Z,3.40
2018-09-14T20:41:21.437Z,3.10
2018-09-14T20:42:21.446Z,3.00
2018-09-14T20:43:21.508Z,2.90
2018-09-14T20:44:21.398Z,3.30
2018-09-14T20:45:21.477Z,3.10
2018-09-14T20:46:21.379Z,3.10
2018-09-14T20:47:21.349Z,4.90
2018-09-14T20:48:21.322Z,4.50
2018-09-14T20:49:21.345Z,3.60
2018-09-14T20:50:21.389Z,3.30
2018-09-14T20:51:21.296Z,3.20
2018-09-14T20:52:21.288Z,3.40
2018-09-14T20:53:21.264Z,3.00
2018-09-14T20:54:21.235Z,3.40
2018-09-14T20:55:21.217Z,3.50
2018-09-14T20:56:21.191Z,3.60
2018-09-14T20:57:21.204Z,3.70
2018-09-14T20:58:21.210Z,3.50
2018-09-14T20:59:21.156Z,3.50
2018-09-14T21:00:21.133Z,3.10
2018-09-14T21:01:21.128Z,3.30
2018-09-14T21:02:21.105Z,3.20
2018-09-14T21:03:21.075Z,3.70
2018-09-14T21:04:21.176Z,3.30
2018-09-14T21:05:21.042Z,3.50
2018-09-14T21:06:21.040Z,3.80
2018-09-14T21:07:21.034Z,3.50
2018-09-14T21:08:21.079Z,3.40
2018-09-14T21:09:21.030Z,3.30
2018-09-14T21:10:21.038Z,3.10
2018-09-14T21:11:21.014Z,3.30
2018-09-14T21:12:21.010Z,3.30
2018-09-14T21:13:20.996Z,3.30
2018-09-14T21:14:20.883Z,3.20
2018-09-14T21:15:20.883Z,3.20
2018-09-14T21:16:20.867Z,3.10
2018-09-14T21:17:20.834Z,3.30
2018-09-14T21:18:20.851Z,2.90
2018-09-14T21:19:20.797Z,2.90
2018-09-14T21:20:20.790Z,3.10
2018-09-14T21:21:20.764Z,3.10
2018-09-14T21:22:20.775Z,3.10
2018-09-14T21:23:20.756Z,3.40
2018-09-14T21:24:20.737Z,2.80
2018-09-14T21:25:20.693Z,3.20
2018-09-14T21:26:20.675Z,2.90
2018-09-14T21:27:20.647Z,3.30
2018-09-14T21:28:20.653Z,3.60